sensor_id;sensor_type;location;lat;lon;timestamp;P1;durP1;ratioP1;P2;durP2;ratioP2
12155;SDS011;6141;49.092;8.516;2023-06-01T00:02:01;4.13;;;2.87;;
12155;SDS011;6141;49.092;8.516;2023-06-01T00:04:31;3.13;;;2.50;;
12155;SDS011;6141;49.092;8.516;2023-06-01T00:07:01;4.40;;;2.87;;
12155;SDS011;6141;49.092;8.516;2023-06-01T00:09:29;3.30;;;2.27;;
12155;SDS011;6141;49.092;8.516;2023-06-01T00:11:58;4.57;;;2.73;;
12155;SDS011;6141;49.092;8.516;2023-06-01T00:14:30;4.23;;;2.97;;
12155;SDS011;6141;49.092;8.516;2023-06-01T00:17:01;3.60;;;2.73;;
12155;SDS011;6141;49.092;8.516;2023-06-01T00:19:32;4.77;;;3.33;;
12155;SDS011;6141;49.092;8.516;2023-06-01T00:22:01;3.87;;;2.43;;
12155;SDS011;6141;49.092;8.516;2023-06-01T00:24:30;3.40;;;2.63;;
12155;SDS011;6141;49.092;8.516;2023-06-01T00:27:00;4.03;;;3.00;;
12155;SDS011;6141;49.092;8.516;2023-06-01T00:29:32;5.20;;;3.10;;
12155;SDS011;6141;49.092;8.516;2023-06-01T00:32:06;4.23;;;2.70;;
12155;SDS011;6141;49.092;8.516;2023-06-01T00:34:35;4.80;;;2.60;;
12155;SDS011;6141;49.092;8.516;2023-06-01T00:37:04;4.87;;;2.77;;
12155;SDS011;6141;49.092;8.516;2023-06-01T00:39:32;6.67;;;2.83;;
12155;SDS011;6141;49.092;8.516;2023-06-01T00:42:02;3.07;;;2.50;;
12155;SDS011;6141;49.092;8.516;2023-06-01T00:44:32;3.70;;;2.60;;
12155;SDS011;6141;49.092;8.516;2023-06-01T00:47:02;4.20;;;2.40;;
12155;SDS011;6141;49.092;8.516;2023-06-01T00:49:32;3.27;;;2.30;;
12155;SDS011;6141;49.092;8.516;2023-06-01T00:52:02;3.80;;;2.60;;
12155;SDS011;6141;49.092;8.516;2023-06-01T00:54:31;5.73;;;2.93;;
12155;SDS011;6141;49.092;8.516;2023-06-01T00:56:59;3.60;;;2.60;;
12155;SDS011;6141;49.092;8.516;2023-06-01T00:59:32;4.83;;;2.93;;
12155;SDS011;6141;49.092;8.516;2023-06-01T01:02:03;3.13;;;2.57;;
12155;SDS011;6141;49.092;8.516;2023-06-01T01:04:33;6.13;;;3.10;;
12155;SDS011;6141;49.092;8.516;2023-06-01T01:07:04;6.20;;;2.80;;
12155;SDS011;6141;49.092;8.516;2023-06-01T01:09:39;4.37;;;2.90;;
12155;SDS011;6141;49.092;8.516;2023-06-01T01:12:18;5.17;;;2.80;;
12155;SDS011;6141;49.092;8.516;2023-06-01T01:14:55;4.53;;;2.63;;
12155;SDS011;6141;49.092;8.516;2023-06-01T01:17:29;3.10;;;2.53;;
12155;SDS011;6141;49.092;8.516;2023-06-01T01:20:16;5.47;;;2.97;;
12155;SDS011;6141;49.092;8.516;2023-06-01T01:23:04;3.70;;;2.70;;
12155;SDS011;6141;49.092;8.516;2023-06-01T01:28:45;3.40;;;2.50;;
12155;SDS011;6141;49.092;8.516;2023-06-01T01:31:18;5.37;;;2.70;;
12155;SDS011;6141;49.092;8.516;2023-06-01T01:33:53;2.77;;;2.40;;
12155;SDS011;6141;49.092;8.516;2023-06-01T01:36:24;4.23;;;2.50;;
12155;SDS011;6141;49.092;8.516;2023-06-01T01:38:54;4.30;;;2.40;;
12155;SDS011;6141;49.092;8.516;2023-06-01T01:41:23;6.13;;;2.90;;
12155;SDS011;6141;49.092;8.516;2023-06-01T01:43:54;5.37;;;2.70;;
12155;SDS011;6141;49.092;8.516;2023-06-01T01:46:28;4.87;;;2.60;;
12155;SDS011;6141;49.092;8.516;2023-06-01T01:49:00;4.60;;;2.57;;
12155;SDS011;6141;49.092;8.516;2023-06-01T01:51:36;4.80;;;3.00;;
12155;SDS011;6141;49.092;8.516;2023-06-01T01:54:11;3.40;;;2.60;;
12155;SDS011;6141;49.092;8.516;2023-06-01T01:56:43;4.13;;;2.90;;
12155;SDS011;6141;49.092;8.516;2023-06-01T01:59:14;4.07;;;2.93;;
12155;SDS011;6141;49.092;8.516;2023-06-01T02:01:43;3.50;;;2.70;;
12155;SDS011;6141;49.092;8.516;2023-06-01T02:04:16;6.80;;;3.17;;
12155;SDS011;6141;49.092;8.516;2023-06-01T02:06:44;3.23;;;2.73;;
12155;SDS011;6141;49.092;8.516;2023-06-01T02:09:13;4.53;;;2.70;;
12155;SDS011;6141;49.092;8.516;2023-06-01T02:11:42;4.03;;;2.60;;
12155;SDS011;6141;49.092;8.516;2023-06-01T02:14:11;5.00;;;3.00;;
12155;SDS011;6141;49.092;8.516;2023-06-01T02:16:42;3.43;;;2.67;;
12155;SDS011;6141;49.092;8.516;2023-06-01T02:19:14;3.63;;;2.67;;
12155;SDS011;6141;49.092;8.516;2023-06-01T02:21:45;3.30;;;2.63;;
12155;SDS011;6141;49.092;8.516;2023-06-01T02:24:13;3.83;;;2.90;;
12155;SDS011;6141;49.092;8.516;2023-06-01T02:26:46;4.70;;;2.83;;
12155;SDS011;6141;49.092;8.516;2023-06-01T02:29:20;4.50;;;2.83;;
12155;SDS011;6141;49.092;8.516;2023-06-01T02:31:52;4.90;;;3.27;;
12155;SDS011;6141;49.092;8.516;2023-06-01T02:34:22;4.27;;;2.67;;
12155;SDS011;6141;49.092;8.516;2023-06-01T02:36:51;5.27;;;2.90;;
12155;SDS011;6141;49.092;8.516;2023-06-01T02:39:22;2.80;;;2.50;;
12155;SDS011;6141;49.092;8.516;2023-06-01T02:41:51;6.70;;;3.03;;
12155;SDS011;6141;49.092;8.516;2023-06-01T02:44:20;3.60;;;2.97;;
12155;SDS011;6141;49.092;8.516;2023-06-01T02:46:49;3.83;;;2.50;;
12155;SDS011;6141;49.092;8.516;2023-06-01T02:49:20;2.93;;;2.50;;
12155;SDS011;6141;49.092;8.516;2023-06-01T02:51:49;3.10;;;2.47;;
12155;SDS011;6141;49.092;8.516;2023-06-01T02:54:21;3.33;;;2.43;;
12155;SDS011;6141;49.092;8.516;2023-06-01T02:56:50;4.80;;;3.00;;
12155;SDS011;6141;49.092;8.516;2023-06-01T02:59:18;3.47;;;2.70;;
12155;SDS011;6141;49.092;8.516;2023-06-01T03:01:58;3.67;;;2.90;;
12155;SDS011;6141;49.092;8.516;2023-06-01T03:04:28;4.30;;;2.83;;
12155;SDS011;6141;49.092;8.516;2023-06-01T03:06:59;4.87;;;2.60;;
12155;SDS011;6141;49.092;8.516;2023-06-01T03:09:45;5.10;;;3.27;;
12155;SDS011;6141;49.092;8.516;2023-06-01T03:12:42;5.03;;;3.17;;
12155;SDS011;6141;49.092;8.516;2023-06-01T03:15:10;4.53;;;2.63;;
12155;SDS011;6141;49.092;8.516;2023-06-01T03:17:43;4.17;;;3.00;;
12155;SDS011;6141;49.092;8.516;2023-06-01T03:20:12;4.80;;;2.90;;
12155;SDS011;6141;49.092;8.516;2023-06-01T03:22:43;4.23;;;3.10;;
12155;SDS011;6141;49.092;8.516;2023-06-01T03:25:13;6.20;;;3.27;;
12155;SDS011;6141;49.092;8.516;2023-06-01T03:27:43;5.03;;;2.83;;
12155;SDS011;6141;49.092;8.516;2023-06-01T03:30:12;4.00;;;2.97;;
12155;SDS011;6141;49.092;8.516;2023-06-01T03:32:44;4.00;;;2.60;;
12155;SDS011;6141;49.092;8.516;2023-06-01T03:35:13;4.53;;;3.10;;
12155;SDS011;6141;49.092;8.516;2023-06-01T03:37:43;8.50;;;3.10;;
12155;SDS011;6141;49.092;8.516;2023-06-01T03:40:16;5.57;;;3.23;;
12155;SDS011;6141;49.092;8.516;2023-06-01T03:42:46;3.53;;;2.67;;
12155;SDS011;6141;49.092;8.516;2023-06-01T03:45:20;4.60;;;2.77;;
12155;SDS011;6141;49.092;8.516;2023-06-01T03:47:51;3.97;;;2.37;;
12155;SDS011;6141;49.092;8.516;2023-06-01T03:50:19;5.07;;;2.97;;
12155;SDS011;6141;49.092;8.516;2023-06-01T03:52:50;4.87;;;3.20;;
12155;SDS011;6141;49.092;8.516;2023-06-01T03:55:19;6.10;;;3.63;;
12155;SDS011;6141;49.092;8.516;2023-06-01T03:58:12;4.10;;;3.10;;
12155;SDS011;6141;49.092;8.516;2023-06-01T04:00:40;4.47;;;2.93;;
12155;SDS011;6141;49.092;8.516;2023-06-01T04:03:14;5.83;;;3.03;;
12155;SDS011;6141;49.092;8.516;2023-06-01T04:05:42;4.63;;;3.10;;
12155;SDS011;6141;49.092;8.516;2023-06-01T04:08:16;6.53;;;3.23;;
12155;SDS011;6141;49.092;8.516;2023-06-01T04:10:51;4.80;;;3.20;;
12155;SDS011;6141;49.092;8.516;2023-06-01T04:13:21;4.10;;;3.13;;
12155;SDS011;6141;49.092;8.516;2023-06-01T04:15:54;3.17;;;2.70;;
12155;SDS011;6141;49.092;8.516;2023-06-01T04:18:24;7.43;;;2.80;;
12155;SDS011;6141;49.092;8.516;2023-06-01T04:20:58;4.30;;;2.60;;
12155;SDS011;6141;49.092;8.516;2023-06-01T04:23:27;4.77;;;3.10;;
12155;SDS011;6141;49.092;8.516;2023-06-01T04:25:57;5.03;;;2.93;;
12155;SDS011;6141;49.092;8.516;2023-06-01T04:28:28;5.87;;;3.30;;
12155;SDS011;6141;49.092;8.516;2023-06-01T04:30:57;7.40;;;3.10;;
12155;SDS011;6141;49.092;8.516;2023-06-01T04:33:30;4.70;;;3.10;;
12155;SDS011;6141;49.092;8.516;2023-06-01T04:35:59;4.80;;;3.47;;
12155;SDS011;6141;49.092;8.516;2023-06-01T04:38:30;5.43;;;3.20;;
12155;SDS011;6141;49.092;8.516;2023-06-01T04:40:59;5.23;;;3.10;;
12155;SDS011;6141;49.092;8.516;2023-06-01T04:43:29;5.70;;;3.10;;
12155;SDS011;6141;49.092;8.516;2023-06-01T04:45:58;5.30;;;3.30;;
12155;SDS011;6141;49.092;8.516;2023-06-01T04:48:32;3.67;;;2.90;;
12155;SDS011;6141;49.092;8.516;2023-06-01T04:51:02;6.13;;;3.37;;
12155;SDS011;6141;49.092;8.516;2023-06-01T04:53:32;6.53;;;3.13;;
12155;SDS011;6141;49.092;8.516;2023-06-01T04:56:02;8.40;;;3.20;;
12155;SDS011;6141;49.092;8.516;2023-06-01T04:58:34;10.70;;;3.60;;
12155;SDS011;6141;49.092;8.516;2023-06-01T05:01:03;10.87;;;3.90;;
12155;SDS011;6141;49.092;8.516;2023-06-01T05:03:35;9.33;;;4.23;;
12155;SDS011;6141;49.092;8.516;2023-06-01T05:06:04;10.50;;;3.80;;
12155;SDS011;6141;49.092;8.516;2023-06-01T05:08:32;7.63;;;3.57;;
12155;SDS011;6141;49.092;8.516;2023-06-01T05:11:02;4.90;;;3.50;;
12155;SDS011;6141;49.092;8.516;2023-06-01T05:13:31;5.47;;;3.60;;
12155;SDS011;6141;49.092;8.516;2023-06-01T05:16:03;5.27;;;3.47;;
12155;SDS011;6141;49.092;8.516;2023-06-01T05:18:32;7.67;;;3.40;;
12155;SDS011;6141;49.092;8.516;2023-06-01T05:21:02;5.10;;;3.40;;
12155;SDS011;6141;49.092;8.516;2023-06-01T05:23:31;7.43;;;3.50;;
12155;SDS011;6141;49.092;8.516;2023-06-01T05:26:00;7.83;;;3.80;;
12155;SDS011;6141;49.092;8.516;2023-06-01T05:28:34;5.17;;;3.30;;
12155;SDS011;6141;49.092;8.516;2023-06-01T05:31:10;5.07;;;3.27;;
12155;SDS011;6141;49.092;8.516;2023-06-01T05:33:48;6.90;;;3.57;;
12155;SDS011;6141;49.092;8.516;2023-06-01T05:36:18;5.53;;;3.47;;
12155;SDS011;6141;49.092;8.516;2023-06-01T05:38:50;4.40;;;3.23;;
12155;SDS011;6141;49.092;8.516;2023-06-01T05:41:18;5.77;;;3.10;;
12155;SDS011;6141;49.092;8.516;2023-06-01T05:43:47;6.30;;;3.40;;
12155;SDS011;6141;49.092;8.516;2023-06-01T05:46:17;4.57;;;3.57;;
12155;SDS011;6141;49.092;8.516;2023-06-01T05:48:46;5.67;;;3.40;;
12155;SDS011;6141;49.092;8.516;2023-06-01T05:51:17;5.47;;;3.47;;
12155;SDS011;6141;49.092;8.516;2023-06-01T05:53:46;8.00;;;3.40;;
12155;SDS011;6141;49.092;8.516;2023-06-01T05:56:15;8.90;;;3.47;;
12155;SDS011;6141;49.092;8.516;2023-06-01T05:58:44;6.97;;;3.70;;
12155;SDS011;6141;49.092;8.516;2023-06-01T06:01:19;5.33;;;3.50;;
12155;SDS011;6141;49.092;8.516;2023-06-01T06:03:50;5.83;;;3.67;;
12155;SDS011;6141;49.092;8.516;2023-06-01T06:06:22;6.67;;;3.70;;
12155;SDS011;6141;49.092;8.516;2023-06-01T06:08:52;9.00;;;3.70;;
12155;SDS011;6141;49.092;8.516;2023-06-01T06:11:20;5.77;;;3.77;;
12155;SDS011;6141;49.092;8.516;2023-06-01T06:13:49;6.23;;;3.50;;
12155;SDS011;6141;49.092;8.516;2023-06-01T06:16:17;5.03;;;3.07;;
12155;SDS011;6141;49.092;8.516;2023-06-01T06:18:46;7.70;;;3.90;;
12155;SDS011;6141;49.092;8.516;2023-06-01T06:21:16;6.83;;;3.60;;
12155;SDS011;6141;49.092;8.516;2023-06-01T06:23:45;9.97;;;3.90;;
12155;SDS011;6141;49.092;8.516;2023-06-01T06:26:14;6.57;;;3.17;;
12155;SDS011;6141;49.092;8.516;2023-06-01T06:28:43;4.83;;;2.67;;
12155;SDS011;6141;49.092;8.516;2023-06-01T06:31:11;7.27;;;3.00;;
12155;SDS011;6141;49.092;8.516;2023-06-01T06:33:41;8.47;;;3.03;;
12155;SDS011;6141;49.092;8.516;2023-06-01T06:36:10;6.23;;;2.80;;
12155;SDS011;6141;49.092;8.516;2023-06-01T06:38:40;5.87;;;3.13;;
12155;SDS011;6141;49.092;8.516;2023-06-01T06:41:08;8.30;;;3.10;;
12155;SDS011;6141;49.092;8.516;2023-06-01T06:43:37;5.53;;;2.80;;
12155;SDS011;6141;49.092;8.516;2023-06-01T06:46:05;8.87;;;3.20;;
12155;SDS011;6141;49.092;8.516;2023-06-01T06:48:35;9.83;;;3.20;;
12155;SDS011;6141;49.092;8.516;2023-06-01T06:51:04;5.57;;;3.00;;
12155;SDS011;6141;49.092;8.516;2023-06-01T06:53:32;5.93;;;2.63;;
12155;SDS011;6141;49.092;8.516;2023-06-01T06:56:02;4.47;;;2.60;;
12155;SDS011;6141;49.092;8.516;2023-06-01T06:58:31;4.43;;;2.80;;
12155;SDS011;6141;49.092;8.516;2023-06-01T07:00:59;4.70;;;2.43;;
12155;SDS011;6141;49.092;8.516;2023-06-01T07:03:31;5.00;;;2.40;;
12155;SDS011;6141;49.092;8.516;2023-06-01T07:06:07;5.67;;;2.57;;
12155;SDS011;6141;49.092;8.516;2023-06-01T07:08:35;6.70;;;2.40;;
12155;SDS011;6141;49.092;8.516;2023-06-01T07:11:06;4.30;;;2.43;;
12155;SDS011;6141;49.092;8.516;2023-06-01T07:13:35;6.87;;;2.70;;
12155;SDS011;6141;49.092;8.516;2023-06-01T07:16:04;7.10;;;2.53;;
12155;SDS011;6141;49.092;8.516;2023-06-01T07:18:34;4.37;;;2.33;;
12155;SDS011;6141;49.092;8.516;2023-06-01T07:21:04;4.00;;;2.30;;
12155;SDS011;6141;49.092;8.516;2023-06-01T07:23:32;4.53;;;2.27;;
12155;SDS011;6141;49.092;8.516;2023-06-01T07:26:02;5.03;;;2.30;;
12155;SDS011;6141;49.092;8.516;2023-06-01T07:28:33;5.30;;;2.73;;
12155;SDS011;6141;49.092;8.516;2023-06-01T07:31:03;4.90;;;2.57;;
12155;SDS011;6141;49.092;8.516;2023-06-01T07:33:32;4.27;;;2.70;;
12155;SDS011;6141;49.092;8.516;2023-06-01T07:36:03;3.73;;;2.47;;
12155;SDS011;6141;49.092;8.516;2023-06-01T07:38:35;5.50;;;2.40;;
12155;SDS011;6141;49.092;8.516;2023-06-01T07:41:08;3.93;;;2.30;;
12155;SDS011;6141;49.092;8.516;2023-06-01T07:43:39;3.80;;;2.30;;
12155;SDS011;6141;49.092;8.516;2023-06-01T07:46:09;3.87;;;2.37;;
12155;SDS011;6141;49.092;8.516;2023-06-01T07:48:38;6.27;;;2.30;;
12155;SDS011;6141;49.092;8.516;2023-06-01T07:51:06;4.93;;;2.30;;
12155;SDS011;6141;49.092;8.516;2023-06-01T07:53:35;5.63;;;2.43;;
12155;SDS011;6141;49.092;8.516;2023-06-01T07:56:04;7.47;;;2.70;;
12155;SDS011;6141;49.092;8.516;2023-06-01T07:58:32;5.63;;;2.53;;
12155;SDS011;6141;49.092;8.516;2023-06-01T08:01:02;5.47;;;2.93;;
12155;SDS011;6141;49.092;8.516;2023-06-01T08:03:31;4.60;;;2.47;;
12155;SDS011;6141;49.092;8.516;2023-06-01T08:06:01;3.97;;;2.20;;
12155;SDS011;6141;49.092;8.516;2023-06-01T08:08:32;4.83;;;2.47;;
12155;SDS011;6141;49.092;8.516;2023-06-01T08:11:01;5.60;;;2.60;;
12155;SDS011;6141;49.092;8.516;2023-06-01T08:13:30;5.70;;;2.90;;
12155;SDS011;6141;49.092;8.516;2023-06-01T08:16:04;6.10;;;2.87;;
12155;SDS011;6141;49.092;8.516;2023-06-01T08:18:33;5.57;;;2.20;;
12155;SDS011;6141;49.092;8.516;2023-06-01T08:21:04;4.67;;;2.50;;
12155;SDS011;6141;49.092;8.516;2023-06-01T08:23:35;4.50;;;2.63;;
12155;SDS011;6141;49.092;8.516;2023-06-01T08:26:04;3.13;;;2.40;;
12155;SDS011;6141;49.092;8.516;2023-06-01T08:28:32;4.60;;;2.60;;
12155;SDS011;6141;49.092;8.516;2023-06-01T08:31:01;5.10;;;2.40;;
12155;SDS011;6141;49.092;8.516;2023-06-01T08:33:31;4.07;;;2.33;;
12155;SDS011;6141;49.092;8.516;2023-06-01T08:36:00;4.90;;;3.00;;
12155;SDS011;6141;49.092;8.516;2023-06-01T08:38:29;4.20;;;2.50;;
12155;SDS011;6141;49.092;8.516;2023-06-01T08:40:59;6.90;;;2.80;;
12155;SDS011;6141;49.092;8.516;2023-06-01T08:43:33;7.17;;;2.53;;
12155;SDS011;6141;49.092;8.516;2023-06-01T08:46:05;3.73;;;2.63;;
12155;SDS011;6141;49.092;8.516;2023-06-01T08:48:35;4.07;;;2.63;;
12155;SDS011;6141;49.092;8.516;2023-06-01T08:51:06;4.70;;;2.57;;
12155;SDS011;6141;49.092;8.516;2023-06-01T08:53:36;8.63;;;2.83;;
12155;SDS011;6141;49.092;8.516;2023-06-01T08:56:11;6.13;;;2.73;;
12155;SDS011;6141;49.092;8.516;2023-06-01T08:58:39;5.30;;;2.50;;
12155;SDS011;6141;49.092;8.516;2023-06-01T09:01:08;7.53;;;2.80;;
12155;SDS011;6141;49.092;8.516;2023-06-01T09:03:41;5.63;;;2.37;;
12155;SDS011;6141;49.092;8.516;2023-06-01T09:06:10;6.47;;;2.60;;
12155;SDS011;6141;49.092;8.516;2023-06-01T09:08:39;8.07;;;2.63;;
12155;SDS011;6141;49.092;8.516;2023-06-01T09:11:09;5.80;;;2.50;;
12155;SDS011;6141;49.092;8.516;2023-06-01T09:13:39;3.73;;;2.67;;
12155;SDS011;6141;49.092;8.516;2023-06-01T09:16:08;4.67;;;2.83;;
12155;SDS011;6141;49.092;8.516;2023-06-01T09:18:40;5.97;;;2.93;;
12155;SDS011;6141;49.092;8.516;2023-06-01T09:21:19;3.60;;;2.70;;
12155;SDS011;6141;49.092;8.516;2023-06-01T09:23:48;5.47;;;2.80;;
12155;SDS011;6141;49.092;8.516;2023-06-01T09:26:17;4.67;;;2.87;;
12155;SDS011;6141;49.092;8.516;2023-06-01T09:28:53;6.23;;;2.83;;
12155;SDS011;6141;49.092;8.516;2023-06-01T09:31:37;3.87;;;2.40;;
12155;SDS011;6141;49.092;8.516;2023-06-01T09:34:09;4.00;;;2.33;;
12155;SDS011;6141;49.092;8.516;2023-06-01T09:36:39;8.03;;;2.93;;
12155;SDS011;6141;49.092;8.516;2023-06-01T09:39:07;6.90;;;2.80;;
12155;SDS011;6141;49.092;8.516;2023-06-01T09:41:48;7.57;;;3.10;;
12155;SDS011;6141;49.092;8.516;2023-06-01T09:44:25;4.47;;;2.60;;
12155;SDS011;6141;49.092;8.516;2023-06-01T09:46:55;5.87;;;3.20;;
12155;SDS011;6141;49.092;8.516;2023-06-01T09:49:27;6.90;;;3.20;;
12155;SDS011;6141;49.092;8.516;2023-06-01T09:52:08;4.33;;;2.70;;
12155;SDS011;6141;49.092;8.516;2023-06-01T09:54:42;5.90;;;2.80;;
12155;SDS011;6141;49.092;8.516;2023-06-01T09:57:19;5.20;;;3.10;;
12155;SDS011;6141;49.092;8.516;2023-06-01T09:59:48;4.57;;;3.10;;
12155;SDS011;6141;49.092;8.516;2023-06-01T10:02:18;6.57;;;3.40;;
12155;SDS011;6141;49.092;8.516;2023-06-01T10:04:50;7.97;;;3.20;;
12155;SDS011;6141;49.092;8.516;2023-06-01T10:07:23;3.23;;;2.63;;
12155;SDS011;6141;49.092;8.516;2023-06-01T10:09:56;3.13;;;2.43;;
12155;SDS011;6141;49.092;8.516;2023-06-01T10:12:30;4.50;;;3.07;;
12155;SDS011;6141;49.092;8.516;2023-06-01T10:15:00;5.20;;;3.53;;
12155;SDS011;6141;49.092;8.516;2023-06-01T10:17:41;5.17;;;3.40;;
12155;SDS011;6141;49.092;8.516;2023-06-01T10:20:14;6.20;;;3.10;;
12155;SDS011;6141;49.092;8.516;2023-06-01T10:22:43;4.97;;;3.20;;
12155;SDS011;6141;49.092;8.516;2023-06-01T10:25:12;9.53;;;3.30;;
12155;SDS011;6141;49.092;8.516;2023-06-01T10:27:45;6.57;;;3.50;;
12155;SDS011;6141;49.092;8.516;2023-06-01T10:30:22;4.67;;;2.87;;
12155;SDS011;6141;49.092;8.516;2023-06-01T10:32:51;6.10;;;3.20;;
12155;SDS011;6141;49.092;8.516;2023-06-01T10:38:26;5.70;;;3.20;;
12155;SDS011;6141;49.092;8.516;2023-06-01T10:43:57;4.20;;;2.63;;
12155;SDS011;6141;49.092;8.516;2023-06-01T10:46:42;6.60;;;2.93;;
12155;SDS011;6141;49.092;8.516;2023-06-01T10:49:11;9.33;;;3.37;;
12155;SDS011;6141;49.092;8.516;2023-06-01T10:51:43;5.17;;;3.40;;
12155;SDS011;6141;49.092;8.516;2023-06-01T10:54:24;6.53;;;3.37;;
12155;SDS011;6141;49.092;8.516;2023-06-01T11:02:42;4.53;;;3.37;;
12155;SDS011;6141;49.092;8.516;2023-06-01T11:08:06;4.70;;;2.70;;
12155;SDS011;6141;49.092;8.516;2023-06-01T11:13:28;3.53;;;2.07;;
12155;SDS011;6141;49.092;8.516;2023-06-01T11:19:00;4.30;;;2.00;;
12155;SDS011;6141;49.092;8.516;2023-06-01T11:21:31;4.77;;;2.00;;
12155;SDS011;6141;49.092;8.516;2023-06-01T11:24:07;7.03;;;2.00;;
12155;SDS011;6141;49.092;8.516;2023-06-01T11:26:38;5.15;;;2.15;;
12155;SDS011;6141;49.092;8.516;2023-06-01T11:29:10;6.27;;;1.83;;
12155;SDS011;6141;49.092;8.516;2023-06-01T11:31:41;2.50;;;1.93;;
12155;SDS011;6141;49.092;8.516;2023-06-01T11:34:13;3.25;;;2.25;;
12155;SDS011;6141;49.092;8.516;2023-06-01T11:36:43;4.77;;;2.30;;
12155;SDS011;6141;49.092;8.516;2023-06-01T11:39:20;3.03;;;2.13;;
12155;SDS011;6141;49.092;8.516;2023-06-01T11:41:50;4.33;;;2.10;;
12155;SDS011;6141;49.092;8.516;2023-06-01T11:44:20;7.40;;;3.17;;
12155;SDS011;6141;49.092;8.516;2023-06-01T11:46:49;2.80;;;2.20;;
12155;SDS011;6141;49.092;8.516;2023-06-01T11:49:21;5.47;;;2.45;;
12155;SDS011;6141;49.092;8.516;2023-06-01T11:51:52;4.50;;;2.23;;
12155;SDS011;6141;49.092;8.516;2023-06-01T11:54:27;5.97;;;2.57;;
12155;SDS011;6141;49.092;8.516;2023-06-01T11:56:57;4.30;;;2.40;;
12155;SDS011;6141;49.092;8.516;2023-06-01T11:59:25;4.32;;;2.10;;
12155;SDS011;6141;49.092;8.516;2023-06-01T12:01:55;3.33;;;2.22;;
12155;SDS011;6141;49.092;8.516;2023-06-01T12:04:24;4.68;;;2.38;;
12155;SDS011;6141;49.092;8.516;2023-06-01T12:07:04;3.17;;;2.10;;
12155;SDS011;6141;49.092;8.516;2023-06-01T12:09:35;7.38;;;2.53;;
12155;SDS011;6141;49.092;8.516;2023-06-01T12:12:09;3.83;;;2.15;;
12155;SDS011;6141;49.092;8.516;2023-06-01T12:14:38;3.25;;;2.30;;
12155;SDS011;6141;49.092;8.516;2023-06-01T12:17:17;6.53;;;2.47;;
12155;SDS011;6141;49.092;8.516;2023-06-01T12:19:56;4.25;;;2.22;;
12155;SDS011;6141;49.092;8.516;2023-06-01T12:22:35;3.17;;;2.42;;
12155;SDS011;6141;49.092;8.516;2023-06-01T12:25:15;2.72;;;2.20;;
12155;SDS011;6141;49.092;8.516;2023-06-01T12:28:02;3.63;;;2.38;;
12155;SDS011;6141;49.092;8.516;2023-06-01T12:30:41;5.03;;;2.20;;
12155;SDS011;6141;49.092;8.516;2023-06-01T12:33:30;5.63;;;2.20;;
12155;SDS011;6141;49.092;8.516;2023-06-01T12:36:11;3.38;;;2.00;;
12155;SDS011;6141;49.092;8.516;2023-06-01T12:39:06;4.05;;;2.17;;
12155;SDS011;6141;49.092;8.516;2023-06-01T12:41:48;4.53;;;2.20;;
12155;SDS011;6141;49.092;8.516;2023-06-01T12:44:27;8.70;;;2.70;;
12155;SDS011;6141;49.092;8.516;2023-06-01T12:46:55;4.18;;;2.20;;
12155;SDS011;6141;49.092;8.516;2023-06-01T12:52:52;4.13;;;2.25;;
12155;SDS011;6141;49.092;8.516;2023-06-01T12:55:40;3.72;;;2.28;;
12155;SDS011;6141;49.092;8.516;2023-06-01T12:58:30;5.25;;;2.38;;
12155;SDS011;6141;49.092;8.516;2023-06-01T13:00:59;5.18;;;2.30;;
12155;SDS011;6141;49.092;8.516;2023-06-01T13:03:28;4.35;;;2.05;;
12155;SDS011;6141;49.092;8.516;2023-06-01T13:05:57;3.65;;;2.30;;
12155;SDS011;6141;49.092;8.516;2023-06-01T13:08:29;6.05;;;2.28;;
12155;SDS011;6141;49.092;8.516;2023-06-01T13:10:58;3.58;;;2.28;;
12155;SDS011;6141;49.092;8.516;2023-06-01T13:13:26;2.78;;;2.13;;
12155;SDS011;6141;49.092;8.516;2023-06-01T13:15:57;3.90;;;2.22;;
12155;SDS011;6141;49.092;8.516;2023-06-01T13:18:25;3.50;;;2.20;;
12155;SDS011;6141;49.092;8.516;2023-06-01T13:20:55;5.78;;;2.65;;
12155;SDS011;6141;49.092;8.516;2023-06-01T13:23:24;4.05;;;2.28;;
12155;SDS011;6141;49.092;8.516;2023-06-01T13:25:54;4.40;;;2.15;;
12155;SDS011;6141;49.092;8.516;2023-06-01T13:28:22;6.30;;;2.63;;
12155;SDS011;6141;49.092;8.516;2023-06-01T13:30:51;3.60;;;2.40;;
12155;SDS011;6141;49.092;8.516;2023-06-01T13:33:23;9.32;;;6.47;;
12155;SDS011;6141;49.092;8.516;2023-06-01T13:35:51;5.13;;;2.45;;
12155;SDS011;6141;49.092;8.516;2023-06-01T13:38:21;4.85;;;2.75;;
12155;SDS011;6141;49.092;8.516;2023-06-01T13:40:50;4.13;;;2.60;;
12155;SDS011;6141;49.092;8.516;2023-06-01T13:43:19;4.72;;;2.53;;
12155;SDS011;6141;49.092;8.516;2023-06-01T13:45:47;4.38;;;2.35;;
12155;SDS011;6141;49.092;8.516;2023-06-01T13:48:18;4.07;;;2.38;;
12155;SDS011;6141;49.092;8.516;2023-06-01T13:50:48;3.95;;;2.25;;
12155;SDS011;6141;49.092;8.516;2023-06-01T13:53:18;5.60;;;2.80;;
12155;SDS011;6141;49.092;8.516;2023-06-01T13:55:47;4.40;;;2.78;;
12155;SDS011;6141;49.092;8.516;2023-06-01T13:58:15;5.65;;;2.40;;
12155;SDS011;6141;49.092;8.516;2023-06-01T14:00:44;5.88;;;2.70;;
12155;SDS011;6141;49.092;8.516;2023-06-01T14:03:16;3.70;;;2.50;;
12155;SDS011;6141;49.092;8.516;2023-06-01T14:05:46;5.60;;;2.80;;
12155;SDS011;6141;49.092;8.516;2023-06-01T14:08:22;5.55;;;2.70;;
12155;SDS011;6141;49.092;8.516;2023-06-01T14:10:51;4.60;;;2.50;;
12155;SDS011;6141;49.092;8.516;2023-06-01T14:13:19;4.80;;;2.70;;
12155;SDS011;6141;49.092;8.516;2023-06-01T14:15:48;6.07;;;2.97;;
12155;SDS011;6141;49.092;8.516;2023-06-01T14:18:17;5.35;;;2.65;;
12155;SDS011;6141;49.092;8.516;2023-06-01T14:20:45;6.72;;;2.38;;
12155;SDS011;6141;49.092;8.516;2023-06-01T14:23:14;8.52;;;2.92;;
12155;SDS011;6141;49.092;8.516;2023-06-01T14:25:44;4.97;;;2.40;;
12155;SDS011;6141;49.092;8.516;2023-06-01T14:28:14;7.10;;;2.72;;
12155;SDS011;6141;49.092;8.516;2023-06-01T14:30:43;5.72;;;2.60;;
12155;SDS011;6141;49.092;8.516;2023-06-01T14:33:14;5.45;;;2.50;;
12155;SDS011;6141;49.092;8.516;2023-06-01T14:35:43;5.85;;;2.30;;
12155;SDS011;6141;49.092;8.516;2023-06-01T14:38:13;3.35;;;2.30;;
12155;SDS011;6141;49.092;8.516;2023-06-01T14:40:42;6.40;;;2.72;;
12155;SDS011;6141;49.092;8.516;2023-06-01T14:43:12;6.50;;;2.42;;
12155;SDS011;6141;49.092;8.516;2023-06-01T14:45:40;3.78;;;2.58;;
12155;SDS011;6141;49.092;8.516;2023-06-01T14:48:10;3.58;;;2.30;;
12155;SDS011;6141;49.092;8.516;2023-06-01T14:50:41;4.93;;;2.33;;
12155;SDS011;6141;49.092;8.516;2023-06-01T14:53:10;7.97;;;2.60;;
12155;SDS011;6141;49.092;8.516;2023-06-01T14:55:39;4.05;;;2.35;;
12155;SDS011;6141;49.092;8.516;2023-06-01T14:58:08;4.22;;;2.30;;
12155;SDS011;6141;49.092;8.516;2023-06-01T15:00:39;6.60;;;2.42;;
12155;SDS011;6141;49.092;8.516;2023-06-01T15:03:08;4.82;;;2.50;;
12155;SDS011;6141;49.092;8.516;2023-06-01T15:05:37;4.18;;;2.28;;
12155;SDS011;6141;49.092;8.516;2023-06-01T15:08:05;5.80;;;2.42;;
12155;SDS011;6141;49.092;8.516;2023-06-01T15:10:34;3.67;;;2.10;;
12155;SDS011;6141;49.092;8.516;2023-06-01T15:13:03;3.67;;;2.25;;
12155;SDS011;6141;49.092;8.516;2023-06-01T15:15:35;3.53;;;2.55;;
12155;SDS011;6141;49.092;8.516;2023-06-01T15:18:07;5.47;;;2.45;;
12155;SDS011;6141;49.092;8.516;2023-06-01T15:20:37;3.63;;;2.40;;
12155;SDS011;6141;49.092;8.516;2023-06-01T15:23:06;5.97;;;2.33;;
12155;SDS011;6141;49.092;8.516;2023-06-01T15:25:34;2.75;;;1.85;;
12155;SDS011;6141;49.092;8.516;2023-06-01T15:28:03;5.15;;;2.35;;
12155;SDS011;6141;49.092;8.516;2023-06-01T15:30:32;3.30;;;2.30;;
12155;SDS011;6141;49.092;8.516;2023-06-01T15:33:02;5.63;;;2.43;;
12155;SDS011;6141;49.092;8.516;2023-06-01T15:35:36;4.47;;;2.33;;
12155;SDS011;6141;49.092;8.516;2023-06-01T15:38:07;2.37;;;1.97;;
12155;SDS011;6141;49.092;8.516;2023-06-01T15:40:38;6.00;;;2.57;;
12155;SDS011;6141;49.092;8.516;2023-06-01T15:43:07;4.83;;;2.23;;
12155;SDS011;6141;49.092;8.516;2023-06-01T15:45:35;5.57;;;2.20;;
12155;SDS011;6141;49.092;8.516;2023-06-01T15:48:06;3.67;;;2.17;;
12155;SDS011;6141;49.092;8.516;2023-06-01T15:50:36;2.87;;;2.30;;
12155;SDS011;6141;49.092;8.516;2023-06-01T15:53:06;3.78;;;2.33;;